createdAt,value
2023-04-07T00:00:44.712Z,61.53
2023-04-07T00:01:44.765Z,61.53
2023-04-07T00:02:44.896Z,61.15
2023-04-07T00:03:44.862Z,61.66
2023-04-07T00:04:44.774Z,61.34
2023-04-07T00:05:44.698Z,61.34
2023-04-07T00:06:44.694Z,61.34
2023-04-07T00:07:55.092Z,61.34
2023-04-07T00:08:44.680Z,61.43
2023-04-07T00:09:44.680Z,61.43
2023-04-07T00:10:44.685Z,61.53
2023-04-07T00:11:44.664Z,61.53
2023-04-07T00:12:44.667Z,61.53
2023-04-07T00:13:44.662Z,61.34
2023-04-07T00:14:44.656Z,61.24
2023-04-07T00:15:44.664Z,61.63
2023-04-07T00:16:44.643Z,61.15
2023-04-07T00:17:44.755Z,61.27
2023-04-07T00:18:44.653Z,61.15
2023-04-07T00:19:44.643Z,61.43
2023-04-07T00:20:44.624Z,61.24
2023-04-07T00:21:44.630Z,61.43
2023-04-07T00:22:44.636Z,61.24
2023-04-07T00:23:44.632Z,61.24
2023-04-07T00:24:44.645Z,61.43
2023-04-07T00:25:44.614Z,61.37
2023-04-07T00:26:44.646Z,61.43
2023-04-07T00:27:44.613Z,61.34
2023-04-07T00:28:44.607Z,61.43
2023-04-07T00:29:44.606Z,61.34
2023-04-07T00:30:44.577Z,61.34
2023-04-07T00:31:44.711Z,61.15
2023-04-07T00:32:45.612Z,61.34
2023-04-07T00:33:44.566Z,61.53
2023-04-07T00:34:44.577Z,61.53
2023-04-07T00:35:44.581Z,61.34
2023-04-07T00:36:44.570Z,61.43
2023-04-07T00:37:44.557Z,61.24
2023-04-07T00:38:44.552Z,61.15
2023-04-07T00:39:44.551Z,61.46
2023-04-07T00:40:44.562Z,61.43
2023-04-07T00:41:44.554Z,61.46
2023-04-07T00:42:44.560Z,61.43
2023-04-07T00:43:44.527Z,61.34
2023-04-07T00:44:44.528Z,61.72
2023-04-07T00:45:44.530Z,61.72
2023-04-07T00:46:44.581Z,61.53
2023-04-07T00:47:44.544Z,61.72
2023-04-07T00:48:44.517Z,61.75
2023-04-07T00:49:44.501Z,61.72
2023-04-07T00:50:44.527Z,61.53
2023-04-07T00:51:44.504Z,61.82
2023-04-07T00:52:44.490Z,61.82
2023-04-07T00:53:44.497Z,61.82
2023-04-07T00:54:44.484Z,61.91
2023-04-07T00:55:44.485Z,61.91
2023-04-07T00:56:44.475Z,61.53
2023-04-07T00:57:44.487Z,61.82
2023-04-07T00:58:44.477Z,61.72
2023-04-07T00:59:44.474Z,61.91
2023-04-07T01:00:44.471Z,61.82
2023-04-07T01:01:44.487Z,61.82
2023-04-07T01:02:44.842Z,61.53
2023-04-07T01:03:44.800Z,61.82
2023-04-07T01:04:44.513Z,61.53
2023-04-07T01:05:44.429Z,61.63
2023-04-07T01:06:44.437Z,61.91
2023-04-07T01:07:44.424Z,61.82
2023-04-07T01:08:44.426Z,61.72
2023-04-07T01:09:44.426Z,61.63
2023-04-07T01:10:44.413Z,61.82
2023-04-07T01:11:44.406Z,61.72
2023-04-07T01:12:44.410Z,61.72
2023-04-07T01:13:44.400Z,61.85
2023-04-07T01:14:44.417Z,61.82
2023-04-07T01:15:44.421Z,61.72
2023-04-07T01:16:44.373Z,61.63
2023-04-07T01:17:44.436Z,61.72
2023-04-07T01:18:44.381Z,61.72
2023-04-07T01:19:44.382Z,61.72
2023-04-07T01:20:44.384Z,61.72
2023-04-07T01:21:44.372Z,61.72
2023-04-07T01:22:44.345Z,61.85
2023-04-07T01:23:44.364Z,61.72
2023-04-07T01:24:44.347Z,61.72
2023-04-07T01:25:44.338Z,61.91
2023-04-07T01:26:44.345Z,61.91
2023-04-07T01:27:44.352Z,61.82
2023-04-07T01:28:44.341Z,61.91
2023-04-07T01:29:44.317Z,61.91
2023-04-07T01:30:44.375Z,61.91
2023-04-07T01:31:44.453Z,61.91
2023-04-07T01:32:44.325Z,61.72
2023-04-07T01:33:44.308Z,61.91
2023-04-07T01:34:44.307Z,61.91
2023-04-07T01:35:44.315Z,61.91
2023-04-07T01:36:44.350Z,62.01
2023-04-07T01:37:44.285Z,61.82
2023-04-07T01:38:44.297Z,61.82
2023-04-07T01:39:44.305Z,62.01
2023-04-07T01:40:44.282Z,62.04
2023-04-07T01:41:44.264Z,62.10
2023-04-07T01:42:44.264Z,62.10
2023-04-07T01:43:45.124Z,62.10
2023-04-07T01:44:44.271Z,62.10
2023-04-07T01:45:44.271Z,61.82
2023-04-07T01:46:44.371Z,61.82
2023-04-07T01:47:44.274Z,62.10
2023-04-07T01:48:44.248Z,61.72
2023-04-07T01:49:44.237Z,61.82
2023-04-07T01:50:44.243Z,61.82
2023-04-07T01:51:44.240Z,61.82
2023-04-07T01:52:44.224Z,61.72
2023-04-07T01:53:44.240Z,61.72
2023-04-07T01:54:44.221Z,62.01
2023-04-07T01:55:44.219Z,61.72
2023-04-07T01:56:44.222Z,61.82
2023-04-07T01:57:44.201Z,61.82
2023-04-07T01:58:44.212Z,61.72
2023-04-07T01:59:44.209Z,61.82
2023-04-07T02:00:44.267Z,61.91
2023-04-07T02:01:44.414Z,61.72
2023-04-07T02:02:44.386Z,61.82
2023-04-07T02:03:44.267Z,61.91
2023-04-07T02:04:44.185Z,61.82
2023-04-07T02:05:44.184Z,61.94
2023-04-07T02:06:44.186Z,62.01
2023-04-07T02:07:44.173Z,61.82
2023-04-07T02:08:44.157Z,61.82
2023-04-07T02:09:44.173Z,61.82
2023-04-07T02:10:44.145Z,61.82
2023-04-07T02:11:44.162Z,62.01
2023-04-07T02:12:44.149Z,61.91
2023-04-07T02:13:44.139Z,61.85
2023-04-07T02:14:44.126Z,61.91
2023-04-07T02:15:44.135Z,61.94
2023-04-07T02:16:45.207Z,61.91
2023-04-07T02:17:44.182Z,61.85
2023-04-07T02:18:44.141Z,62.01
2023-04-07T02:19:44.118Z,62.01
2023-04-07T02:20:44.113Z,62.01
2023-04-07T02:21:44.104Z,62.01
2023-04-07T02:22:44.104Z,61.82
2023-04-07T02:23:44.086Z,61.72
2023-04-07T02:24:44.079Z,61.72
2023-04-07T02:25:44.095Z,61.72
2023-04-07T02:26:44.088Z,61.63
2023-04-07T02:27:44.083Z,61.72
2023-04-07T02:28:44.074Z,61.72
2023-04-07T02:29:44.065Z,61.72
2023-04-07T02:30:44.067Z,61.91
2023-04-07T02:31:44.123Z,61.66
2023-04-07T02:32:44.089Z,61.63
2023-04-07T02:33:44.048Z,61.72
2023-04-07T02:34:44.074Z,61.91
2023-04-07T02:35:44.047Z,61.82
2023-04-07T02:36:44.094Z,61.91
2023-04-07T02:37:44.043Z,61.75
2023-04-07T02:38:44.017Z,62.01
2023-04-07T02:39:44.043Z,62.01
2023-04-07T02:40:44.042Z,61.82
2023-04-07T02:41:44.001Z,61.91
2023-04-07T02:42:43.996Z,62.01
2023-04-07T02:43:44.023Z,61.82
2023-04-07T02:44:44.006Z,61.82
2023-04-07T02:45:44.021Z,62.01
2023-04-07T02:46:43.997Z,61.53
2023-04-07T02:47:44.046Z,61.82
2023-04-07T02:48:43.986Z,61.53
2023-04-07T02:49:43.986Z,61.53
2023-04-07T02:50:43.983Z,61.53
2023-04-07T02:51:43.974Z,61.53
2023-04-07T02:52:43.967Z,61.53
2023-04-07T02:53:43.953Z,61.53
2023-04-07T02:54:43.950Z,61.53
2023-04-07T02:55:43.947Z,61.72
2023-04-07T02:56:43.935Z,61.72
2023-04-07T02:57:43.935Z,61.72
2023-04-07T02:58:43.934Z,61.72
2023-04-07T02:59:43.939Z,61.72
2023-04-07T03:00:43.914Z,61.82
2023-04-07T03:01:43.986Z,61.82
2023-04-07T03:02:44.095Z,61.72
2023-04-07T03:03:44.010Z,61.72
2023-04-07T03:04:43.927Z,61.72
2023-04-07T03:05:43.919Z,61.82
2023-04-07T03:06:43.925Z,61.82
2023-04-07T03:07:43.909Z,61.72
2023-04-07T03:08:43.887Z,61.82
2023-04-07T03:09:43.879Z,61.72
2023-04-07T03:10:43.881Z,61.91
2023-04-07T03:11:43.882Z,61.82
2023-04-07T03:12:43.876Z,61.43
2023-04-07T03:13:43.876Z,61.72
2023-04-07T03:14:43.868Z,61.72
2023-04-07T03:15:43.865Z,61.63
2023-04-07T03:16:43.880Z,61.63
2023-04-07T03:17:43.869Z,62.01
2023-04-07T03:18:43.849Z,61.91
2023-04-07T03:19:43.862Z,62.01
2023-04-07T03:20:43.841Z,61.72
2023-04-07T03:21:43.842Z,61.91
2023-04-07T03:22:43.844Z,61.63
2023-04-07T03:23:43.841Z,61.63
2023-04-07T03:24:43.836Z,61.43
2023-04-07T03:25:43.822Z,61.43
2023-04-07T03:26:43.822Z,61.91
2023-04-07T03:27:43.819Z,61.53
2023-04-07T03:28:43.795Z,61.91
2023-04-07T03:29:43.800Z,61.91
2023-04-07T03:30:43.808Z,62.01
2023-04-07T03:31:43.798Z,61.82
2023-04-07T03:32:43.826Z,61.82
2023-04-07T03:33:43.779Z,61.82
2023-04-07T03:34:43.768Z,62.01
2023-04-07T03:35:43.825Z,61.82
2023-04-07T03:36:43.766Z,61.91
2023-04-07T03:37:43.773Z,61.72
2023-04-07T03:38:43.791Z,61.82
2023-04-07T03:39:43.749Z,61.82
2023-04-07T03:40:43.757Z,61.91
2023-04-07T03:41:43.758Z,61.72
2023-04-07T03:42:43.760Z,61.72
2023-04-07T03:43:43.749Z,61.91
2023-04-07T03:44:43.736Z,61.82
2023-04-07T03:45:43.728Z,61.82
2023-04-07T03:46:43.762Z,61.91
2023-04-07T03:47:43.761Z,61.91
2023-04-07T03:48:43.717Z,62.39
2023-04-07T03:49:43.736Z,62.39
2023-04-07T03:50:43.701Z,62.39
2023-04-07T03:51:43.803Z,61.82
2023-04-07T03:52:43.754Z,62.49
2023-04-07T03:53:43.684Z,62.39
2023-04-07T03:54:43.765Z,62.49
2023-04-07T03:55:43.681Z,62.39
2023-04-07T03:56:43.680Z,61.91
2023-04-07T03:57:43.674Z,62.39
2023-04-07T03:58:43.684Z,61.91
2023-04-07T03:59:43.693Z,62.39
2023-04-07T04:00:43.665Z,62.59
2023-04-07T04:01:43.715Z,62.39
2023-04-07T04:02:43.739Z,62.49
2023-04-07T04:03:43.759Z,62.49
2023-04-07T04:04:43.680Z,62.39
2023-04-07T04:05:43.647Z,62.59
2023-04-07T04:06:43.650Z,62.39
2023-04-07T04:07:43.634Z,62.49
2023-04-07T04:08:43.634Z,62.39
2023-04-07T04:09:43.639Z,62.59
2023-04-07T04:10:43.645Z,62.20
2023-04-07T04:11:43.625Z,62.39
2023-04-07T04:12:43.628Z,62.49
2023-04-07T04:13:43.598Z,62.20
2023-04-07T04:14:43.611Z,61.91
2023-04-07T04:15:43.628Z,62.20
2023-04-07T04:16:43.595Z,62.20
2023-04-07T04:17:43.629Z,62.10
2023-04-07T04:18:43.608Z,62.10
2023-04-07T04:19:43.587Z,62.10
2023-04-07T04:20:43.578Z,62.49
2023-04-07T04:21:43.577Z,62.20
2023-04-07T04:22:43.584Z,62.20
2023-04-07T04:23:43.564Z,62.30
2023-04-07T04:24:43.572Z,62.30
2023-04-07T04:25:43.564Z,62.30
2023-04-07T04:26:43.558Z,62.30
2023-04-07T04:27:43.546Z,62.39
2023-04-07T04:28:43.547Z,62.01
2023-04-07T04:29:43.526Z,62.39
2023-04-07T04:30:43.544Z,62.39
2023-04-07T04:31:43.696Z,62.30
2023-04-07T04:32:43.587Z,62.01
2023-04-07T04:33:43.519Z,62.39
2023-04-07T04:34:43.532Z,62.39
2023-04-07T04:35:43.514Z,62.39
2023-04-07T04:36:43.520Z,62.39
2023-04-07T04:37:43.496Z,62.10
2023-04-07T04:38:43.494Z,62.39
2023-04-07T04:39:43.499Z,62.39
2023-04-07T04:40:43.487Z,62.01
2023-04-07T04:41:43.485Z,62.10
2023-04-07T04:42:43.510Z,62.20
2023-04-07T04:43:43.490Z,62.49
2023-04-07T04:44:43.469Z,62.39
2023-04-07T04:45:43.472Z,62.49
2023-04-07T04:46:43.490Z,62.39
2023-04-07T04:47:43.483Z,62.39
2023-04-07T04:48:43.455Z,62.30
2023-04-07T04:49:43.456Z,62.20
2023-04-07T04:50:43.458Z,62.20
2023-04-07T04:51:43.440Z,62.20
2023-04-07T04:52:43.436Z,62.49
2023-04-07T04:53:43.417Z,62.30
2023-04-07T04:54:43.440Z,62.30
2023-04-07T04:55:43.410Z,62.30
2023-04-07T04:56:43.431Z,62.30
2023-04-07T04:57:43.426Z,62.30
2023-04-07T04:58:43.428Z,62.20
2023-04-07T04:59:43.412Z,62.30
2023-04-07T05:00:43.421Z,62.39
2023-04-07T05:01:43.482Z,62.30
2023-04-07T05:02:43.593Z,62.20
2023-04-07T05:03:43.598Z,62.30
2023-04-07T05:04:43.479Z,62.77
2023-04-07T05:05:43.375Z,62.20
2023-04-07T05:06:43.382Z,62.20
2023-04-07T05:07:43.390Z,62.20
2023-04-07T05:08:43.374Z,62.77
2023-04-07T05:09:43.354Z,62.10
2023-04-07T05:10:43.359Z,62.30
2023-04-07T05:11:43.350Z,61.72
2023-04-07T05:12:43.349Z,62.20
2023-04-07T05:13:43.342Z,62.68
2023-04-07T05:14:43.368Z,62.77
2023-04-07T05:15:43.362Z,62.59
2023-04-07T05:16:43.360Z,62.87
2023-04-07T05:17:43.378Z,62.77
2023-04-07T05:18:43.325Z,62.68
2023-04-07T05:19:43.318Z,62.59
2023-04-07T05:20:43.302Z,62.49
2023-04-07T05:21:43.329Z,62.59
2023-04-07T05:22:43.314Z,62.68
2023-04-07T05:23:43.296Z,62.59
2023-04-07T05:24:43.312Z,62.68
2023-04-07T05:25:43.286Z,62.87
2023-04-07T05:26:43.293Z,62.77
2023-04-07T05:27:43.286Z,62.59
2023-04-07T05:28:43.281Z,62.59
2023-04-07T05:29:43.287Z,62.59
2023-04-07T05:30:43.299Z,62.77
2023-04-07T05:31:43.289Z,62.59
2023-04-07T05:32:43.304Z,62.49
2023-04-07T05:33:43.260Z,62.68
2023-04-07T05:34:43.253Z,62.59
2023-04-07T05:35:43.246Z,62.59
2023-04-07T05:36:43.237Z,62.59
2023-04-07T05:37:43.240Z,62.68
2023-04-07T05:38:43.226Z,62.59
2023-04-07T05:39:43.229Z,62.59
2023-04-07T05:40:43.227Z,62.68
2023-04-07T05:41:43.213Z,62.68
2023-04-07T05:42:43.219Z,62.68
2023-04-07T05:43:43.201Z,62.59
2023-04-07T05:44:43.211Z,62.77
2023-04-07T05:45:43.231Z,62.59
2023-04-07T05:46:43.235Z,62.77
2023-04-07T05:47:43.245Z,62.77
2023-04-07T05:48:43.179Z,62.68
2023-04-07T05:49:43.174Z,62.68
2023-04-07T05:50:43.179Z,62.59
2023-04-07T05:51:43.179Z,62.59
2023-04-07T05:52:43.180Z,62.59
2023-04-07T05:53:43.150Z,62.10
2023-04-07T05:54:43.176Z,62.77
2023-04-07T05:55:43.163Z,62.68
2023-04-07T05:56:43.161Z,62.39
2023-04-07T05:57:43.137Z,61.72
2023-04-07T05:58:43.149Z,62.68
2023-04-07T05:59:43.161Z,62.68
2023-04-07T06:00:43.129Z,61.82
2023-04-07T06:01:43.218Z,62.77
2023-04-07T06:02:43.370Z,62.77
2023-04-07T06:03:43.171Z,62.30
2023-04-07T06:04:43.126Z,62.68
2023-04-07T06:05:43.233Z,62.01
2023-04-07T06:06:43.104Z,62.77
2023-04-07T06:07:43.118Z,62.87
2023-04-07T06:08:43.089Z,62.87
2023-04-07T06:09:43.094Z,62.87
2023-04-07T06:10:43.089Z,62.68
2023-04-07T06:11:43.089Z,62.68
2023-04-07T06:12:43.093Z,62.49
2023-04-07T06:13:43.132Z,62.49
2023-04-07T06:14:43.068Z,62.77
2023-04-07T06:15:43.075Z,62.87
2023-04-07T06:16:43.101Z,62.77
2023-04-07T06:17:43.072Z,62.68
2023-04-07T06:18:43.078Z,62.49
2023-04-07T06:19:43.045Z,62.68
2023-04-07T06:20:43.059Z,62.49
2023-04-07T06:21:43.029Z,62.68
2023-04-07T06:22:43.039Z,62.68
2023-04-07T06:23:43.033Z,62.59
2023-04-07T06:24:43.040Z,62.59
2023-04-07T06:25:43.037Z,62.68
2023-04-07T06:26:43.024Z,62.49
2023-04-07T06:27:43.002Z,62.77
2023-04-07T06:28:43.025Z,62.49
2023-04-07T06:29:43.011Z,62.49
2023-04-07T06:30:43.105Z,62.68
2023-04-07T06:31:42.995Z,62.49
2023-04-07T06:32:43.035Z,62.59
2023-04-07T06:33:42.974Z,62.59
2023-04-07T06:34:43.010Z,62.59
2023-04-07T06:35:42.977Z,62.59
2023-04-07T06:36:43.008Z,62.59
2023-04-07T06:37:42.955Z,62.68
2023-04-07T06:38:42.966Z,62.49
2023-04-07T06:39:42.969Z,62.49
2023-04-07T06:40:42.945Z,62.59
2023-04-07T06:41:42.952Z,62.59
2023-04-07T06:42:42.955Z,62.49
2023-04-07T06:43:42.936Z,62.59
2023-04-07T06:44:42.944Z,62.59
2023-04-07T06:45:43.030Z,62.59
2023-04-07T06:46:42.943Z,62.68
2023-04-07T06:47:42.943Z,62.39
2023-04-07T06:48:42.911Z,62.59
2023-04-07T06:49:42.921Z,62.59
2023-04-07T06:50:42.961Z,62.59
2023-04-07T06:51:42.915Z,62.59
2023-04-07T06:52:43.185Z,62.49
2023-04-07T06:53:42.900Z,62.59
2023-04-07T06:54:42.894Z,62.49
2023-04-07T06:55:42.875Z,62.39
2023-04-07T06:56:42.912Z,62.49
2023-04-07T06:57:42.866Z,62.59
2023-04-07T06:58:42.874Z,62.59
2023-04-07T06:59:42.866Z,62.49
2023-04-07T07:00:42.865Z,62.49
2023-04-07T07:01:42.911Z,62.68
2023-04-07T07:02:42.961Z,62.39
2023-04-07T07:03:42.997Z,62.30
2023-04-07T07:04:42.890Z,62.49
2023-04-07T07:05:42.838Z,62.49
2023-04-07T07:06:42.956Z,62.49
2023-04-07T07:07:42.841Z,62.49
2023-04-07T07:08:42.860Z,62.49
2023-04-07T07:09:42.838Z,62.49
2023-04-07T07:10:42.833Z,62.59
2023-04-07T07:11:42.818Z,62.49
2023-04-07T07:12:42.803Z,62.39
2023-04-07T07:13:42.811Z,62.49
2023-04-07T07:14:42.815Z,62.39
2023-04-07T07:15:42.804Z,62.30
2023-04-07T07:16:42.822Z,62.30
2023-04-07T07:17:42.835Z,62.39
2023-04-07T07:18:42.784Z,62.39
2023-04-07T07:19:42.783Z,62.49
2023-04-07T07:20:42.759Z,62.49
2023-04-07T07:21:42.761Z,62.39
2023-04-07T07:22:42.784Z,62.49
2023-04-07T07:23:42.747Z,62.49
2023-04-07T07:24:42.759Z,62.30
2023-04-07T07:25:42.759Z,62.20
2023-04-07T07:26:43.626Z,62.30
2023-04-07T07:27:42.729Z,62.20
2023-04-07T07:28:42.739Z,62.39
2023-04-07T07:29:42.730Z,62.39
2023-04-07T07:30:42.750Z,62.49
2023-04-07T07:31:42.739Z,62.49
2023-04-07T07:32:42.785Z,62.49
2023-04-07T07:33:42.724Z,62.49
2023-04-07T07:34:42.813Z,62.49
2023-04-07T07:35:42.738Z,62.49
2023-04-07T07:36:42.711Z,62.39
2023-04-07T07:37:42.711Z,62.49
2023-04-07T07:38:42.736Z,62.77
2023-04-07T07:39:42.714Z,62.30
2023-04-07T07:40:42.691Z,62.39
2023-04-07T07:41:42.670Z,62.39
2023-04-07T07:42:42.675Z,62.59
2023-04-07T07:43:42.661Z,62.30
2023-04-07T07:44:42.662Z,62.77
2023-04-07T07:45:42.669Z,62.59
2023-04-07T07:46:42.710Z,62.20
2023-04-07T07:47:42.690Z,62.59
2023-04-07T07:48:42.670Z,62.20
2023-04-07T07:49:42.641Z,62.30
2023-04-07T07:50:42.925Z,62.20
2023-04-07T07:51:42.633Z,62.49
2023-04-07T07:52:42.621Z,62.39
2023-04-07T07:53:42.628Z,62.59
2023-04-07T07:54:42.630Z,62.59
2023-04-07T07:55:42.618Z,62.59
2023-04-07T07:56:42.619Z,62.59
2023-04-07T07:57:42.620Z,62.71
2023-04-07T07:58:42.606Z,62.39
2023-04-07T07:59:42.590Z,62.59
2023-04-07T08:00:42.593Z,62.42
2023-04-07T08:01:42.618Z,62.33
2023-04-07T08:02:42.836Z,62.42
2023-04-07T08:03:42.760Z,62.23
2023-04-07T08:04:42.594Z,62.62
2023-04-07T08:05:42.579Z,62.04
2023-04-07T08:06:42.557Z,61.75
2023-04-07T08:07:42.559Z,62.13
2023-04-07T08:08:42.555Z,61.88
2023-04-07T08:09:42.560Z,61.75
2023-04-07T08:10:42.572Z,61.88
2023-04-07T08:11:42.561Z,61.40
2023-04-07T08:12:42.583Z,61.59
2023-04-07T08:13:42.538Z,61.49
2023-04-07T08:14:42.538Z,61.30
2023-04-07T08:15:42.639Z,61.11
2023-04-07T08:16:42.642Z,61.02
2023-04-07T08:17:42.558Z,60.72
2023-04-07T08:18:42.529Z,60.72
2023-04-07T08:19:42.524Z,61.02
2023-04-07T08:20:42.513Z,61.21
2023-04-07T08:21:42.508Z,61.24
2023-04-07T08:22:42.514Z,61.24
2023-04-07T08:23:42.509Z,61.33
2023-04-07T08:24:42.507Z,61.14
2023-04-07T08:25:42.490Z,60.85
2023-04-07T08:26:42.510Z,60.85
2023-04-07T08:27:42.477Z,60.85
2023-04-07T08:28:42.483Z,61.05
2023-04-07T08:29:42.520Z,60.85
2023-04-07T08:30:42.495Z,61.05
2023-04-07T08:31:42.522Z,61.05
2023-04-07T08:32:42.481Z,61.05
2023-04-07T08:33:42.465Z,60.75
2023-04-07T08:34:42.481Z,61.43
2023-04-07T08:35:42.481Z,61.88
2023-04-07T08:36:43.935Z,62.65
2023-04-07T08:37:42.442Z,62.26
2023-04-07T08:38:42.441Z,62.36
2023-04-07T08:39:42.436Z,62.45
2023-04-07T08:40:42.459Z,63.29
2023-04-07T08:41:42.470Z,64.05
2023-04-07T08:42:42.457Z,64.98
2023-04-07T08:43:42.423Z,64.85
2023-04-07T08:44:42.408Z,65.81
2023-04-07T08:45:42.417Z,66.35
2023-04-07T08:46:42.438Z,66.93
2023-04-07T08:47:42.450Z,67.56
2023-04-07T08:48:42.389Z,68.04
2023-04-07T08:49:42.405Z,68.62
2023-04-07T08:50:42.398Z,68.29
2023-04-07T08:51:42.374Z,68.87
2023-04-07T08:52:42.381Z,69.54
2023-04-07T08:53:42.384Z,69.60
2023-04-07T08:54:42.349Z,70.17
2023-04-07T08:55:42.357Z,70.17
2023-04-07T08:56:42.353Z,70.36
2023-04-07T08:57:42.344Z,70.56
2023-04-07T08:58:42.355Z,70.94
2023-04-07T08:59:42.343Z,71.32
2023-04-07T09:00:42.352Z,71.00
2023-04-07T09:01:42.486Z,71.00
2023-04-07T09:02:42.317Z,70.90
2023-04-07T09:03:42.382Z,71.00
2023-04-07T09:04:42.279Z,71.00
2023-04-07T09:05:42.274Z,71.00
2023-04-07T09:06:42.317Z,71.00
2023-04-07T09:07:42.258Z,71.00
2023-04-07T09:08:42.269Z,70.90
2023-04-07T09:09:42.261Z,71.09
2023-04-07T09:10:42.232Z,71.38
2023-04-07T09:11:42.248Z,71.09
2023-04-07T09:12:42.253Z,71.19
2023-04-07T09:13:42.214Z,70.61
2023-04-07T09:14:42.229Z,70.71
2023-04-07T09:15:42.194Z,69.95
2023-04-07T09:16:42.268Z,69.37
2023-04-07T09:17:42.214Z,69.21
2023-04-07T09:18:42.167Z,68.93
2023-04-07T09:19:42.209Z,68.74
2023-04-07T09:20:42.160Z,68.74
2023-04-07T09:21:42.165Z,68.26
2023-04-07T09:22:42.145Z,68.07
2023-04-07T09:23:42.168Z,68.20
2023-04-07T09:24:42.145Z,67.53
2023-04-07T09:25:42.142Z,67.24
2023-04-07T09:26:42.115Z,67.24
2023-04-07T09:27:42.141Z,67.53
2023-04-07T09:28:42.141Z,66.76
2023-04-07T09:29:42.099Z,67.05
2023-04-07T09:30:42.158Z,66.76
2023-04-07T09:31:42.127Z,66.67
2023-04-07T09:32:42.091Z,66.67
2023-04-07T09:33:42.070Z,66.13
2023-04-07T09:34:42.051Z,65.94
2023-04-07T09:35:42.108Z,66.09
2023-04-07T09:36:42.052Z,66.22
2023-04-07T09:37:42.072Z,65.65
2023-04-07T09:38:42.026Z,65.84
2023-04-07T09:39:42.040Z,65.84
2023-04-07T09:40:42.088Z,65.55
2023-04-07T09:41:42.060Z,65.74
2023-04-07T09:42:42.014Z,65.74
2023-04-07T09:43:42.041Z,65.45
2023-04-07T09:44:42.004Z,65.36
2023-04-07T09:45:42.018Z,65.84
2023-04-07T09:46:42.282Z,65.36
2023-04-07T09:47:42.070Z,65.65
2023-04-07T09:48:41.983Z,65.55
2023-04-07T09:49:42.021Z,65.45
2023-04-07T09:50:41.959Z,65.55
2023-04-07T09:51:41.970Z,65.36
2023-04-07T09:52:42.012Z,65.36
2023-04-07T09:53:41.934Z,65.26
2023-04-07T09:54:41.966Z,64.88
2023-04-07T09:55:41.940Z,65.08
2023-04-07T09:56:41.930Z,64.88
2023-04-07T09:57:41.923Z,65.26
2023-04-07T09:58:41.897Z,64.98
2023-04-07T09:59:41.908Z,64.79
2023-04-07T10:00:41.891Z,64.59
2023-04-07T10:01:41.943Z,64.88
2023-04-07T10:02:41.980Z,64.79
2023-04-07T10:03:41.939Z,64.59
2023-04-07T10:04:41.897Z,64.72
2023-04-07T10:05:41.866Z,64.82
2023-04-07T10:06:41.860Z,64.88
2023-04-07T10:07:42.769Z,64.43
2023-04-07T10:08:41.888Z,64.43
2023-04-07T10:09:41.847Z,64.25
2023-04-07T10:10:41.895Z,64.63
2023-04-07T10:11:41.853Z,64.34
2023-04-07T10:12:41.817Z,64.15
2023-04-07T10:13:41.828Z,64.05
2023-04-07T10:14:41.812Z,64.25
2023-04-07T10:15:41.816Z,64.25
2023-04-07T10:16:41.844Z,64.15
2023-04-07T10:17:41.846Z,64.15
2023-04-07T10:18:41.807Z,64.15
2023-04-07T10:19:41.786Z,64.15
2023-04-07T10:20:41.785Z,64.05
2023-04-07T10:21:41.767Z,64.05
2023-04-07T10:22:41.775Z,63.86
2023-04-07T10:23:41.760Z,63.86
2023-04-07T10:24:41.770Z,63.39
2023-04-07T10:25:41.779Z,63.57
2023-04-07T10:26:41.914Z,63.48
2023-04-07T10:27:41.772Z,63.57
2023-04-07T10:28:41.738Z,63.57
2023-04-07T10:29:41.753Z,63.51
2023-04-07T10:30:41.789Z,63.60
2023-04-07T10:31:41.721Z,63.70
2023-04-07T10:32:41.839Z,63.60
2023-04-07T10:33:41.727Z,63.22
2023-04-07T10:34:41.754Z,63.13
2023-04-07T10:35:41.748Z,63.22
2023-04-07T10:36:41.703Z,63.42
2023-04-07T10:37:41.766Z,63.22
2023-04-07T10:38:41.705Z,63.51
2023-04-07T10:39:41.684Z,63.32
2023-04-07T10:40:41.682Z,63.42
2023-04-07T10:41:41.724Z,63.32
2023-04-07T10:42:41.688Z,63.70
2023-04-07T10:43:41.718Z,63.70
2023-04-07T10:44:41.666Z,63.51
2023-04-07T10:45:41.668Z,63.51
2023-04-07T10:46:41.730Z,63.32
2023-04-07T10:47:41.683Z,62.93
2023-04-07T10:48:41.675Z,63.13
2023-04-07T10:49:41.645Z,63.13
2023-04-07T10:50:41.676Z,63.13
2023-04-07T10:51:41.626Z,63.13
2023-04-07T10:52:41.657Z,63.22
2023-04-07T10:53:41.699Z,63.03
2023-04-07T10:54:41.631Z,63.22
2023-04-07T10:55:41.614Z,63.03
2023-04-07T10:56:41.600Z,63.03
2023-04-07T10:57:41.611Z,63.03
2023-04-07T10:58:41.598Z,63.13
2023-04-07T10:59:41.588Z,63.03
2023-04-07T11:00:41.616Z,63.03
2023-04-07T11:01:41.619Z,62.93
2023-04-07T11:02:41.927Z,63.22
2023-04-07T11:03:41.609Z,63.22
2023-04-07T11:04:41.632Z,63.13
2023-04-07T11:05:41.554Z,63.13
2023-04-07T11:06:41.579Z,63.03
2023-04-07T11:07:41.553Z,63.03
2023-04-07T11:08:41.548Z,62.93
2023-04-07T11:09:41.565Z,62.93
2023-04-07T11:10:41.542Z,62.93
2023-04-07T11:11:41.649Z,63.13
2023-04-07T11:12:41.528Z,63.13
2023-04-07T11:13:41.543Z,63.13
2023-04-07T11:14:41.531Z,62.74
2023-04-07T11:15:41.606Z,62.84
2023-04-07T11:16:41.536Z,62.74
2023-04-07T11:17:41.545Z,62.84
2023-04-07T11:18:41.529Z,62.84
2023-04-07T11:19:41.514Z,62.84
2023-04-07T11:20:41.530Z,62.84
2023-04-07T11:21:41.503Z,62.93
2023-04-07T11:22:41.509Z,63.03
2023-04-07T11:23:41.489Z,63.06
2023-04-07T11:24:41.471Z,62.74
2023-04-07T11:25:41.484Z,62.93
2023-04-07T11:26:41.474Z,62.87
2023-04-07T11:27:41.485Z,62.84
2023-04-07T11:28:41.465Z,62.74
2023-04-07T11:29:41.485Z,63.03
2023-04-07T11:30:41.453Z,62.96
2023-04-07T11:31:41.578Z,62.74
2023-04-07T11:32:41.451Z,63.06
2023-04-07T11:33:41.449Z,62.96
2023-04-07T11:34:41.476Z,63.06
2023-04-07T11:35:41.451Z,62.96
2023-04-07T11:36:41.431Z,63.06
2023-04-07T11:37:41.417Z,62.96
2023-04-07T11:38:41.429Z,62.96
2023-04-07T11:39:41.415Z,62.96
2023-04-07T11:40:41.450Z,62.87
2023-04-07T11:41:41.412Z,63.06
2023-04-07T11:42:41.418Z,62.87
2023-04-07T11:43:41.392Z,62.87
2023-04-07T11:44:41.396Z,63.06
2023-04-07T11:45:41.402Z,62.87
2023-04-07T11:46:41.465Z,62.87
2023-04-07T11:47:41.428Z,63.16
2023-04-07T11:48:41.382Z,62.87
2023-04-07T11:49:41.368Z,62.96
2023-04-07T11:50:41.397Z,62.87
2023-04-07T11:51:41.360Z,62.96
2023-04-07T11:52:41.386Z,62.87
2023-04-07T11:53:41.353Z,62.49
2023-04-07T11:54:41.386Z,63.06
2023-04-07T11:55:41.354Z,62.87
2023-04-07T11:56:41.332Z,62.87
2023-04-07T11:57:41.346Z,63.16
2023-04-07T11:58:41.333Z,63.06
2023-04-07T11:59:41.366Z,62.87
2023-04-07T12:00:41.315Z,62.87
2023-04-07T12:01:41.392Z,63.16
2023-04-07T12:02:41.489Z,63.06
2023-04-07T12:03:41.501Z,62.68
2023-04-07T12:04:41.444Z,62.87
2023-04-07T12:05:41.296Z,62.87
2023-04-07T12:06:41.293Z,63.06
2023-04-07T12:07:41.291Z,62.68
2023-04-07T12:08:41.313Z,62.96
2023-04-07T12:09:41.285Z,62.96
2023-04-07T12:10:41.292Z,62.96
2023-04-07T12:11:41.270Z,63.06
2023-04-07T12:12:41.282Z,63.06
2023-04-07T12:13:41.298Z,62.87
2023-04-07T12:14:41.269Z,63.06
2023-04-07T12:15:41.267Z,63.16
2023-04-07T12:16:41.313Z,63.16
2023-04-07T12:17:41.320Z,63.16
2023-04-07T12:18:41.251Z,63.16
2023-04-07T12:19:41.264Z,63.26
2023-04-07T12:20:41.229Z,62.68
2023-04-07T12:21:41.230Z,63.16
2023-04-07T12:22:41.247Z,62.87
2023-04-07T12:23:41.240Z,63.26
2023-04-07T12:24:41.232Z,63.26
2023-04-07T12:25:41.222Z,62.87
2023-04-07T12:26:41.263Z,62.87
2023-04-07T12:27:43.778Z,62.87
2023-04-07T12:28:41.205Z,62.77
2023-04-07T12:29:41.206Z,63.26
2023-04-07T12:30:41.189Z,63.06
2023-04-07T12:31:41.240Z,63.38
2023-04-07T12:32:41.283Z,63.38
2023-04-07T12:33:41.213Z,63.06
2023-04-07T12:34:41.190Z,63.26
2023-04-07T12:35:41.211Z,63.26
2023-04-07T12:36:41.192Z,63.00
2023-04-07T12:37:41.197Z,63.35
2023-04-07T12:38:41.164Z,63.54
2023-04-07T12:39:41.154Z,63.64
2023-04-07T12:40:41.154Z,63.38
2023-04-07T12:41:41.170Z,63.35
2023-04-07T12:42:41.243Z,63.29
2023-04-07T12:43:41.183Z,63.26
2023-04-07T12:44:41.202Z,63.35
2023-04-07T12:45:41.164Z,63.54
2023-04-07T12:46:41.132Z,63.73
2023-04-07T12:47:41.160Z,63.67
2023-04-07T12:48:41.129Z,63.67
2023-04-07T12:49:41.113Z,63.48
2023-04-07T12:50:41.141Z,63.57
2023-04-07T12:51:41.107Z,63.67
2023-04-07T12:52:41.103Z,63.73